Flight Track Log - Related Links

Times and Time Zones

All times are in EDT time to prevent confusion due to time zone crossing. See the ASQ3268 flight status page for this flight to view local times or setup timezone preferences in your user account.

Time Position Orientation Groundspeed Altitude Reporting Facility
EDT Latitude Longitude Course Direction KTS MPH feet Rate Location/Type
Mon 06:59:45 AM 41.5231 -93.6794 203° Southwest 154 177 1,800  Level Minneapolis Center
Mon 07:00:33 AM 41.4925 -93.7247 228° Southwest 172 198 3,400 1,950 Climbing Minneapolis Center
Mon 07:01:45 AM 41.4133 -93.7256 180° South 244 281 5,700 2,075 Climbing Minneapolis Center
Mon 07:02:46 AM 41.3383 -93.7219 178° South 267 307 8,000 2,430 Climbing Minneapolis Center
Mon 07:03:00 AM 41.1633 -93.7767 201° Southwest  Level FlightAware Approximate
Mon 07:03:46 AM 41.2517 -93.7442 191° South 292 336 10,600  Level Minneapolis Center
Mon 07:04:00 AM 41.0720 -93.8267 203° Southwest  Level FlightAware Approximate
Mon 07:04:47 AM 41.1664 -93.7897 202° Southwest 332 382 11,400  Level Minneapolis Center
Mon 07:05:47 AM 41.0703 -93.8381 201° Southwest 364 419 13,400 1,835 Climbing Minneapolis Center
Mon 07:06:48 AM 40.9731 -93.8889 202° Southwest 375 432 15,100 1,537 Climbing Minneapolis Center
Mon 07:07:48 AM 40.8722 -93.9419 202° Southwest 388 447 16,500 1,289 Climbing Minneapolis Center
Mon 07:08:49 AM 40.7689 -93.9956 201° Southwest 396 456 17,700 1,140 Climbing Minneapolis Center
Mon 07:09:49 AM 40.6600 -94.0511 201° Southwest 408 470 18,800 1,140 Climbing Minneapolis Center
Mon 07:10:50 AM 40.5500 -94.1064 201° Southwest 416 479 20,000 1,180 Climbing Minneapolis Center
Mon 07:11:51 AM 40.4381 -94.1636 201° Southwest 424 488 21,200 1,260 Climbing Minneapolis Center
Mon 07:12:30 AM 40.3733 -94.1961 201° Southwest 435 501 22,100 1,576 Climbing Kansas City Center
Mon 07:13:30 AM 40.2417 -94.2639 201° Southwest 438 504 23,800 1,488 Climbing Kansas City Center
Mon 07:14:31 AM 40.1297 -94.3189 201° Southwest 444 511 25,100 1,328 Climbing Kansas City Center
Mon 07:15:32 AM 40.0197 -94.3725 200° South 440 506 26,500 1,289 Climbing Kansas City Center
Mon 07:16:32 AM 39.9119 -94.4275 201° Southwest 436 502 27,700 1,240 Climbing Kansas City Center
Mon 07:17:33 AM 39.7850 -94.4903 201° Southwest 435 501 29,000 1,230 Climbing Kansas City Center
Mon 07:18:34 AM 39.6750 -94.5456 201° Southwest 439 505 30,200 1,240 Climbing Kansas City Center
Mon 07:19:34 AM 39.5661 -94.5997 201° Southwest 438 504 31,500 1,289 Climbing Kansas City Center
Mon 07:20:35 AM 39.4392 -94.6628 201° Southwest 436 502 32,800 1,131 Climbing Kansas City Center
Mon 07:21:36 AM 39.3392 -94.7394 211° Southwest 433 498 33,800 942 Climbing Kansas City Center
Mon 07:22:36 AM 39.2431 -94.8214 213° Southwest 432 497 34,700 893 Climbing Kansas City Center
Mon 07:23:37 AM 39.1292 -94.9208 214° Southwest 436 502 35,600 639 Climbing Kansas City Center
Mon 07:24:38 AM 39.0314 -95.0053 214° Southwest 435 501 36,000 197 Climbing Kansas City Center
Mon 07:25:39 AM 38.9181 -95.0686 204° Southwest 462 532 36,000  Level Kansas City Center
Mon 07:26:40 AM 38.7942 -95.1100 195° South 478 550 36,000  Level Kansas City Center
Mon 07:27:41 AM 38.6444 -95.1586 194° South 494 568 36,000  Level Kansas City Center
Mon 07:28:41 AM 38.5117 -95.2039 195° South 513 590 36,000  Level Kansas City Center
Mon 07:29:42 AM 38.3786 -95.2475 194° South 514 592 36,000  Level Kansas City Center
Mon 07:30:43 AM 38.2239 -95.2983 194° South 514 592 36,000  Level Kansas City Center
Mon 07:31:44 AM 38.0911 -95.3397 194° South 513 590 36,000  Level Kansas City Center
Mon 07:32:45 AM 37.9586 -95.3839 195° South 514 592 36,000  Level Kansas City Center
Mon 07:33:46 AM 37.8089 -95.4294 194° South 509 586 36,000  Level Kansas City Center
Mon 07:34:47 AM 37.6700 -95.4736 194° South 511 588 36,000  Level Kansas City Center
Mon 07:35:48 AM 37.5319 -95.5172 194° South 510 587 36,000  Level Kansas City Center
Mon 07:36:49 AM 37.3947 -95.5614 194° South 508 585 36,000  Level Kansas City Center
Mon 07:37:50 AM 37.2569 -95.6053 194° South 509 586 36,000  Level Kansas City Center
Mon 07:38:51 AM 37.1197 -95.6475 194° South 508 585 36,000  Level Kansas City Center
Mon 07:39:52 AM 36.9819 -95.6914 194° South 510 587 36,000  Level Kansas City Center
Mon 07:40:53 AM 36.8464 -95.7333 194° South 507 583 36,000  Level Kansas City Center
Mon 07:41:54 AM 36.6839 -95.7847 194° South 505 581 36,000  Level Kansas City Center
Mon 07:42:55 AM 36.5478 -95.8269 194° South 506 582 36,000  Level Kansas City Center
Mon 07:43:56 AM 36.4125 -95.8692 194° South 507 583 36,000  Level Kansas City Center
Mon 07:44:58 AM 36.2781 -95.9094 194° South 504 580 36,000  Level Kansas City Center
Mon 07:45:59 AM 36.1419 -95.9503 194° South 505 581 36,000  Level Kansas City Center
Mon 07:47:00 AM 36.0067 -95.9906 194° South 503 579 36,000  Level Kansas City Center
Mon 07:48:01 AM 35.8711 -96.0306 193° South 502 578 36,000  Level Kansas City Center
Mon 07:49:02 AM 35.7314 -96.0739 194° South 502 578 36,000  Level Kansas City Center
Mon 07:49:46 AM 35.6164 -96.1114 195° South 506 582 36,000  Level Fort Worth Center
Mon 07:50:46 AM 35.4811 -96.1517 194° South 506 582 36,000  Level Fort Worth Center
Mon 07:51:46 AM 35.3522 -96.1892 193° South 500 575 36,000  Level Fort Worth Center
Mon 07:52:46 AM 35.2214 -96.2294 194° South 489 563 36,000  Level Fort Worth Center
Mon 07:53:46 AM 35.0903 -96.2692 194° South 489 563 36,000  Level Fort Worth Center
Mon 07:54:46 AM 34.9614 -96.3089 194° South 489 563 36,000  Level Fort Worth Center
Mon 07:55:46 AM 34.8322 -96.3436 192° South 483 556 36,000  Level Fort Worth Center
Mon 07:56:46 AM 34.7053 -96.3831 194° South 483 556 36,000  Level Fort Worth Center
Mon 07:57:46 AM 34.5742 -96.4225 194° South 483 556 36,000  Level Fort Worth Center
Mon 07:58:46 AM 34.4472 -96.4592 193° South 478 550 36,000  Level Fort Worth Center
Mon 07:59:46 AM 34.3203 -96.4956 193° South 473 544 36,000  Level Fort Worth Center
Mon 08:00:46 AM 34.1975 -96.5322 194° South 468 539 36,000  Level Fort Worth Center
Mon 08:01:46 AM 34.0703 -96.5686 193° South 468 539 36,000  Level Fort Worth Center
Mon 08:02:46 AM 33.9475 -96.6047 194° South 468 539 36,000  Level Fort Worth Center
Mon 08:03:46 AM 33.8475 -96.6331 193° South 468 539 36,000  Level Fort Worth Center
Mon 08:04:46 AM 33.7058 -96.6744 194° South 452 520 36,000  Level Fort Worth Center
Mon 08:05:46 AM 33.5808 -96.7103 193° South 452 520 36,000  Level Fort Worth Center
Mon 08:06:46 AM 33.4533 -96.7089 179° South 461 531 36,000  Level Fort Worth Center
Mon 08:07:46 AM 33.3281 -96.7000 177° South 461 531 36,000  Level Fort Worth Center
Mon 08:08:46 AM 33.2008 -96.6861 175° South 461 531 36,000  Level Fort Worth Center
Mon 08:09:46 AM 33.0839 -96.6747 175° South 469 540 36,000  Level Fort Worth Center
Mon 08:10:46 AM 32.9458 -96.6583 174° South 469 540 36,000  Level Fort Worth Center
Mon 08:11:46 AM 32.8331 -96.6494 176° South 459 528 36,000  Level Fort Worth Center
Mon 08:12:46 AM 32.6994 -96.6358 175° South 453 521 36,000  Level Fort Worth Center
Mon 08:13:46 AM 32.5889 -96.6244 175° South 443 510 36,000  Level Fort Worth Center
Mon 08:14:46 AM 32.4550 -96.6108 175° South 443 510 36,000  Level Fort Worth Center
Mon 08:15:46 AM 32.3422 -96.5994 175° South 443 510 36,000  Level Fort Worth Center
Mon 08:16:46 AM 32.2336 -96.5881 175° South 443 510 36,000  Level Fort Worth Center
Mon 08:17:46 AM 32.1042 -96.5747 175° South 437 503 36,000  Level Fort Worth Center
Mon 08:18:46 AM 31.9808 -96.5611 175° South 442 509 36,000 -100 Level Fort Worth Center
Mon 08:19:46 AM 31.8597 -96.5500 176° South 442 509 35,800 -1,100 Descending Fort Worth Center
Mon 08:20:46 AM 31.7258 -96.5367 175° South 442 509 33,800 -1,969 Descending Fort Worth Center
Mon 08:21:54 AM 31.5908 -96.5231 175° South 439 505 31,600 -1,292 Descending Houston Center
Mon 08:22:56 AM 31.4703 -96.4975 170° South 435 501 31,000 -732 Descending Houston Center
Mon 08:23:57 AM 31.3547 -96.4300 153° Southeast 452 520 30,100 -1,426 Descending Houston Center
Mon 08:24:58 AM 31.2367 -96.3544 151° Southeast 466 536 28,100 -2,000 Descending Houston Center
Mon 08:26:00 AM 31.1183 -96.2803 152° Southeast 472 543 26,000 -2,195 Descending Houston Center
Mon 08:27:01 AM 31.0000 -96.2047 151° Southeast 476 548 23,600 -2,390 Descending Houston Center
Mon 08:28:03 AM 30.8869 -96.1344 152° Southeast 463 533 21,100 -2,439 Descending Houston Center
Mon 08:29:04 AM 30.7833 -96.0703 152° Southeast 432 497 18,600 -2,458 Descending Houston Center
Mon 08:29:26 AM 30.7372 -96.0414 152° Southeast 416 479 17,700 -2,262 Descending Houston Center
Mon 08:30:05 AM 30.6769 -96.0033 151° Southeast 416 479 16,300 -2,459 Descending Houston Center
Mon 08:30:27 AM 30.6394 -95.9797 152° Southeast 393 452 15,200 -2,516 Descending Houston Center
Mon 08:31:07 AM 30.5844 -95.9450 151° Southeast 395 455 13,700 -2,557 Descending Houston Center
Mon 08:31:28 AM 30.5422 -95.9206 153° Southeast 380 437 12,600 -1,672 Descending Houston Center
Mon 08:32:08 AM 30.4931 -95.8864 149° Southeast 380 437 12,000 -590 Descending Houston Center
Mon 08:32:29 AM 30.4531 -95.8606 151° Southeast 374 430 12,000 -194 Level Houston Center
Mon 08:33:10 AM 30.4086 -95.8186 141° Southeast 372 428 11,800 -885 Descending Houston Center
Mon 08:33:30 AM 30.3725 -95.7803 138° Southeast 367 422 11,100 -1,377 Descending Houston Center
Mon 08:34:11 AM 30.3336 -95.7386 137° Southeast 367 422 10,400 -885 Descending Houston Center
Mon 08:34:31 AM 30.2983 -95.7019 138° Southeast 326 375 10,200 -677 Descending Houston Center
Mon 08:35:13 AM 30.2672 -95.6700 138° Southeast 330 380 9,700 -1,258 Descending Houston Center
Mon 08:35:33 AM 30.2383 -95.6389 137° Southeast 285 328 8,900 -1,869 Descending Houston Center
Mon 08:36:14 AM 30.1989 -95.5981 138° Southeast 284 327 7,800 -1,574 Descending Houston Center
Mon 08:36:34 AM 30.1806 -95.5806 140° Southeast 272 313 7,300 -1,548 Descending Houston Center
Mon 08:37:16 AM 30.1439 -95.5408 137° Southeast 271 312 6,200 -1,279 Descending Houston Center
Mon 08:37:35 AM 30.1250 -95.5219 139° Southeast 262 302 6,000 -194 Descending Houston Center
Mon 08:38:18 AM 30.1053 -95.4744 116° Southeast 261 300 6,000  Level Houston Center
Mon 08:38:36 AM 30.1050 -95.4422 91° East 261 300 6,000  Level Houston Center
Mon 08:39:19 AM 30.1064 -95.3900 88° East 263 303 6,000  Level Houston Center
Mon 08:39:38 AM 30.1058 -95.3575 91° East 260 299 6,000  Level Houston Center
Mon 08:40:39 AM 30.1044 -95.2756 91° East 257 296 6,000 -229 Level Houston Center
Mon 08:41:23 AM 30.1050 -95.2303 89° East 241 277 5,600 -984 Descending Houston Center
Mon 08:41:40 AM 30.1061 -95.2006 88° East 216 249 5,000 -1,279 Descending Houston Center
Mon 08:42:24 AM 30.0994 -95.1631 102° East 223 257 4,300 -1,279 Descending Houston Center
Mon 08:42:41 AM 30.0725 -95.1564 168° South 222 255 3,700 -1,258 Descending Houston Center
Mon 08:43:26 AM 30.0397 -95.1592 184° South 223 257 3,000 -1,279 Descending Houston Center
Mon 08:43:42 AM 30.0225 -95.1842 231° Southwest 216 249 2,400 -1,082 Descending Houston Center
Mon 08:44:27 AM 30.0069 -95.2261 247° West 206 237 1,900 -677 Descending Houston Center
Mon 08:44:44 AM 30.0089 -95.2389 280° West 168 193 1,700 -706 Descending Houston Center

Login

Don't have an account? Register now (free) for customized features, flight alerts, and more!